Time;durP1;ratioP1;P1;durP2;ratioP2;P2;SDS_P1;SDS_P2;PMS_P1;PMS_P2;Temp;Humidity;BMP_temperature;BMP_pressure;BME280_temperature;BME280_humidity;BME280_pressure;Samples;Min_cycle;Max_cycle;Signal;HPM_P1;HPM_P2
2022/09/29 00:00:12;;;;;;;5.47;3.23;;;5.00;99.90;4.20;99015.00;;;;5001502;28;107671;-64
2022/09/29 00:02:38;;;;;;;4.43;4.03;;;4.40;99.90;4.20;99010.00;;;;5002204;28;88868;-65
2022/09/29 00:05:04;;;;;;;3.50;3.13;;;4.40;99.90;4.20;99005.00;;;;5021339;27;89334;-65
2022/09/29 00:07:31;;;;;;;4.40;2.77;;;4.40;99.90;4.10;99014.00;;;;5008173;28;97719;-65
2022/09/29 00:09:57;;;;;;;5.47;4.10;;;4.30;99.90;4.10;99015.00;;;;5013381;28;87410;-65
2022/09/29 00:12:23;;;;;;;7.43;4.43;;;4.30;99.90;4.10;99019.00;;;;5012377;28;87562;-65
2022/09/29 00:14:49;;;;;;;6.60;4.43;;;4.30;99.90;4.10;99018.00;;;;5001486;28;106510;-65
2022/09/29 00:17:15;;;;;;;3.83;3.53;;;4.30;99.90;4.00;99014.00;;;;5006834;28;87541;-66
2022/09/29 00:19:40;;;;;;;4.13;3.17;;;4.20;99.90;4.00;99014.00;;;;5003074;28;87496;-66
2022/09/29 00:22:06;;;;;;;4.50;2.83;;;4.20;99.90;4.00;99016.00;;;;5005476;28;116528;-66
2022/09/29 00:24:33;;;;;;;2.90;2.57;;;4.20;99.90;4.00;99024.00;;;;5011758;28;116551;-66
2022/09/29 00:27:00;;;;;;;5.03;3.27;;;4.20;99.90;3.90;99021.00;;;;5011344;28;87439;-65
2022/09/29 00:29:26;;;;;;;3.17;2.83;;;4.10;99.90;3.90;99031.00;;;;5013055;28;87299;-66
2022/09/29 00:31:52;;;;;;;4.07;2.87;;;4.10;99.90;3.80;99019.00;;;;5010878;28;102195;-66
2022/09/29 00:34:18;;;;;;;3.90;2.50;;;4.00;99.90;3.70;99025.00;;;;5000054;28;116031;-66
2022/09/29 00:36:44;;;;;;;3.43;3.13;;;4.00;99.90;3.70;99018.00;;;;5004258;28;87052;-65
2022/09/29 00:39:10;;;;;;;4.73;3.10;;;3.90;99.90;3.70;99024.00;;;;5003620;28;105151;-66
2022/09/29 00:41:38;;;;;;;4.57;3.00;;;3.90;99.90;3.60;99028.00;;;;5003916;28;88563;-65
2022/09/29 00:44:44;;;;;;;5.07;3.03;;;4.00;99.90;3.60;99025.00;;;;5008493;28;87961;-65
2022/09/29 00:47:15;;;;;;;3.57;3.27;;;3.90;99.90;3.60;99033.00;;;;5009194;28;86880;-66
2022/09/29 00:49:55;;;;;;;4.83;3.33;;;3.80;99.90;3.60;99036.00;;;;5024977;28;86973;-65
2022/09/29 00:52:26;;;;;;;3.73;2.93;;;3.80;99.90;3.60;99030.00;;;;5008063;28;110699;-65
2022/09/29 00:54:59;;;;;;;4.37;3.40;;;4.20;99.90;3.60;99041.00;;;;5001200;28;106170;-66
2022/09/29 00:57:34;;;;;;;4.03;3.07;;;3.80;99.90;3.50;99041.00;;;;5035221;27;89136;-66
2022/09/29 01:00:11;;;;;;;2.83;2.57;;;3.80;99.90;3.50;99047.00;;;;5009361;28;87635;-65
2022/09/29 01:02:42;;;;;;;3.23;2.93;;;3.70;99.90;3.40;99037.00;;;;5005447;28;87674;-66
2022/09/29 01:05:15;;;;;;;3.43;2.50;;;3.60;99.90;3.40;99040.00;;;;5025297;28;87563;-66
2022/09/29 01:07:44;;;;;;;3.20;2.57;;;3.60;99.90;3.40;99038.00;;;;5026532;28;86873;-66
2022/09/29 01:10:13;;;;;;;4.03;2.73;;;3.60;99.90;3.30;99043.00;;;;5009778;28;87470;-66
2022/09/29 01:12:39;;;;;;;3.50;3.13;;;3.60;99.90;3.30;99029.00;;;;5008782;28;88817;-65
2022/09/29 01:15:05;;;;;;;5.40;4.00;;;3.50;99.90;3.30;99034.00;;;;5002440;28;117621;-66
2022/09/29 01:17:30;;;;;;;5.33;3.80;;;3.50;99.90;3.30;99032.00;;;;5002670;28;100635;-66
2022/09/29 01:20:17;;;;;;;3.30;2.57;;;3.50;99.90;3.30;99031.00;;;;5003715;28;106227;-66
2022/09/29 01:23:20;;;;;;;2.93;2.73;;;3.50;99.90;3.30;99037.00;;;;5005816;28;89654;-66
2022/09/29 01:26:18;;;;;;;5.23;3.23;;;3.60;99.90;3.20;99035.00;;;;5010133;28;88904;-66
2022/09/29 01:29:22;;;;;;;5.57;3.80;;;3.50;99.90;3.20;99047.00;;;;5011400;28;87873;-66
2022/09/29 01:32:24;;;;;;;3.87;2.67;;;3.50;99.90;3.30;99030.00;;;;5009192;28;99522;-67
2022/09/29 01:35:24;;;;;;;3.43;2.80;;;3.50;99.90;3.20;99038.00;;;;5001207;28;88409;-66
2022/09/29 01:37:56;;;;;;;3.20;2.73;;;3.50;99.90;3.30;99040.00;;;;5003544;28;87397;-66
2022/09/29 01:40:34;;;;;;;4.50;2.63;;;3.50;99.90;3.40;99040.00;;;;5007748;28;87534;-67
2022/09/29 01:43:14;;;;;;;4.73;3.43;;;3.60;99.90;3.40;99047.00;;;;5006981;28;86722;-66
2022/09/29 01:45:58;;;;;;;3.77;2.83;;;3.60;99.90;3.50;99038.00;;;;5008513;28;93674;-66
2022/09/29 01:48:30;;;;;;;5.00;3.03;;;3.70;99.90;3.50;99028.00;;;;5004113;28;87617;-66
2022/09/29 01:51:02;;;;;;;3.17;2.83;;;3.70;99.90;3.50;99035.00;;;;5006448;28;94811;-66
2022/09/29 01:54:03;;;;;;;4.07;3.10;;;4.30;99.90;3.40;99038.00;;;;5002901;28;100157;-66
2022/09/29 01:56:42;;;;;;;5.53;3.00;;;3.70;99.90;3.40;99028.00;;;;4986363;28;98551;-66
2022/09/29 01:59:13;;;;;;;2.83;2.33;;;3.70;99.90;3.50;99037.00;;;;5009311;28;99013;-66
2022/09/29 02:01:42;;;;;;;3.83;3.40;;;3.60;99.90;3.40;99034.00;;;;5008838;28;87486;-67
2022/09/29 02:04:29;;;;;;;2.07;1.93;;;3.70;99.90;3.40;99037.00;;;;5025643;28;87279;-67
2022/09/29 02:07:06;;;;;;;3.60;2.93;;;3.70;99.90;3.40;99038.00;;;;5007475;28;88617;-67
2022/09/29 02:09:39;;;;;;;4.27;2.70;;;3.60;99.90;3.40;99036.00;;;;5005451;28;88812;-67
2022/09/29 02:12:06;;;;;;;3.50;2.67;;;3.60;99.90;3.40;99036.00;;;;5006092;28;87572;-67
2022/09/29 02:14:40;;;;;;;3.13;2.57;;;3.60;99.90;3.40;99034.00;;;;5001731;28;87009;-66
2022/09/29 02:17:20;;;;;;;3.47;2.37;;;3.60;99.90;3.40;99036.00;;;;5003300;28;110088;-66
2022/09/29 02:19:50;;;;;;;4.43;3.17;;;3.60;99.90;3.40;99040.00;;;;5004368;28;89443;-67
2022/09/29 02:22:16;;;;;;;4.10;2.93;;;3.60;99.90;3.40;99043.00;;;;5008045;28;87642;-67
2022/09/29 02:24:42;;;;;;;3.10;2.60;;;3.60;99.90;3.50;99044.00;;;;5010951;28;106737;-66
2022/09/29 02:27:09;;;;;;;3.17;2.70;;;3.60;99.90;3.50;99055.00;;;;5006535;28;119075;-66
2022/09/29 02:29:36;;;;;;;5.03;2.27;;;3.70;99.90;3.50;99047.00;;;;5006909;28;87389;-66
2022/09/29 02:32:04;;;;;;;5.03;3.77;;;3.70;99.90;3.50;99043.00;;;;4999147;28;87427;-66
2022/09/29 02:34:35;;;;;;;2.47;2.27;;;3.70;99.90;3.50;99048.00;;;;5002681;28;98249;-66
2022/09/29 02:37:45;;;;;;;5.30;3.23;;;3.70;99.90;3.60;99055.00;;;;5000392;28;106616;-67
2022/09/29 02:40:17;;;;;;;3.10;2.27;;;3.70;99.90;3.60;99054.00;;;;5022768;27;87833;-67
2022/09/29 02:43:23;;;;;;;3.63;3.00;;;3.80;99.90;3.70;99062.00;;;;5005994;28;88591;-67
2022/09/29 02:46:05;;;;;;;4.03;2.67;;;3.90;99.90;3.80;99063.00;;;;4987578;28;98762;-67
2022/09/29 02:49:03;;;;;;;3.90;2.67;;;3.90;99.90;3.90;99067.00;;;;5005316;28;88695;-67
2022/09/29 02:51:45;;;;;;;5.87;2.97;;;4.00;99.90;3.90;99064.00;;;;5002863;28;88623;-67
2022/09/29 02:54:36;;;;;;;4.23;2.93;;;4.10;99.90;4.00;99075.00;;;;5001786;28;103146;-66
2022/09/29 02:57:34;;;;;;;6.40;3.50;;;4.20;99.90;4.10;99075.00;;;;5001652;28;87730;-66
2022/09/29 03:00:10;;;;;;;4.53;3.17;;;4.30;99.90;4.20;99074.00;;;;5022257;28;88646;-66
2022/09/29 03:02:41;;;;;;;4.87;3.17;;;4.30;99.90;4.20;99074.00;;;;5038901;27;88335;-66
2022/09/29 03:05:16;;;;;;;4.57;2.93;;;4.40;99.90;4.30;99076.00;;;;5008135;28;87429;-66
2022/09/29 03:07:42;;;;;;;4.90;3.20;;;4.40;99.90;4.30;99078.00;;;;5023735;28;87812;-66
2022/09/29 03:10:10;;;;;;;3.97;3.33;;;4.60;99.90;4.40;99071.00;;;;5004537;28;107551;-66
2022/09/29 03:12:36;;;;;;;1.97;1.77;;;4.80;99.90;4.40;99077.00;;;;5001748;28;88288;-68
2022/09/29 03:15:03;;;;;;;2.80;2.17;;;4.60;99.90;4.50;99086.00;;;;5003567;28;107777;-68
2022/09/29 03:17:30;;;;;;;4.03;2.70;;;4.60;99.90;4.50;99080.00;;;;5001306;28;96079;-68
2022/09/29 03:19:56;;;;;;;3.07;2.77;;;4.70;99.90;4.60;99084.00;;;;5005401;28;88447;-68
2022/09/29 03:22:22;;;;;;;4.20;2.53;;;4.70;99.90;4.60;99081.00;;;;5004887;28;88289;-68
2022/09/29 03:24:48;;;;;;;4.60;2.83;;;4.80;99.90;4.60;99079.00;;;;5007153;28;93306;-68
2022/09/29 03:27:14;;;;;;;2.87;2.60;;;5.00;99.90;4.70;99087.00;;;;5003162;28;107704;-68
2022/09/29 03:29:39;;;;;;;2.93;2.60;;;4.80;99.90;4.70;99082.00;;;;5004169;28;88389;-68
2022/09/29 03:32:06;;;;;;;3.43;2.23;;;4.90;99.90;4.70;99083.00;;;;5001592;28;117660;-68
2022/09/29 03:34:32;;;;;;;3.33;2.43;;;4.90;99.90;4.80;99085.00;;;;4999314;28;87813;-68
2022/09/29 03:36:58;;;;;;;2.73;2.40;;;4.90;99.90;4.80;99082.00;;;;5005762;28;86926;-69
2022/09/29 03:39:24;;;;;;;4.33;3.43;;;4.90;99.90;4.80;99076.00;;;;5009078;28;110941;-68
2022/09/29 03:41:49;;;;;;;2.33;2.10;;;5.00;99.90;4.80;99077.00;;;;5008691;28;104481;-68
2022/09/29 03:44:15;;;;;;;4.13;2.73;;;5.00;99.90;4.90;99082.00;;;;5008570;28;102368;-68
2022/09/29 03:46:41;;;;;;;2.47;1.87;;;5.10;99.90;4.90;99080.00;;;;5005823;28;87404;-68
2022/09/29 03:49:10;;;;;;;5.03;2.97;;;5.00;99.90;4.90;99083.00;;;;5002781;28;115974;-68
2022/09/29 03:51:36;;;;;;;2.37;2.13;;;5.10;99.90;4.90;99084.00;;;;5002021;28;88557;-68
2022/09/29 03:54:02;;;;;;;2.43;2.23;;;5.10;99.90;5.00;99096.00;;;;4998723;28;101843;-68
2022/09/29 03:56:28;;;;;;;2.23;2.03;;;5.20;99.90;5.00;99078.00;;;;5006855;28;92909;-68
2022/09/29 03:58:53;;;;;;;3.13;2.83;;;5.20;99.90;5.00;99084.00;;;;4996969;28;119764;-68
2022/09/29 04:01:19;;;;;;;2.67;2.27;;;5.10;99.90;5.00;99089.00;;;;5023098;28;117782;-68
2022/09/29 04:03:45;;;;;;;3.13;2.50;;;5.20;99.90;5.10;99092.00;;;;5009370;28;87511;-68
2022/09/29 04:06:11;;;;;;;2.53;2.33;;;5.20;99.90;5.10;99092.00;;;;5006671;28;88668;-68
2022/09/29 04:08:37;;;;;;;5.20;2.83;;;5.30;99.90;5.10;99083.00;;;;5002947;28;87818;-68
2022/09/29 04:11:04;;;;;;;2.63;2.33;;;5.20;99.90;5.10;99089.00;;;;5007835;28;87337;-68
2022/09/29 04:13:31;;;;;;;5.40;3.90;;;5.30;99.90;5.20;99102.00;;;;5000802;28;87472;-69
2022/09/29 04:15:59;;;;;;;4.77;3.57;;;5.30;99.90;5.20;99100.00;;;;5002848;28;86589;-68
2022/09/29 04:18:25;;;;;;;3.87;2.50;;;5.30;99.90;5.20;99100.00;;;;5005934;28;107100;-68
2022/09/29 04:20:51;;;;;;;3.13;2.33;;;5.80;99.90;5.20;99093.00;;;;5008518;28;88287;-68
2022/09/29 04:23:17;;;;;;;6.83;3.00;;;5.30;99.90;5.20;99102.00;;;;5014213;28;95397;-68
2022/09/29 04:25:44;;;;;;;3.07;2.77;;;5.40;99.90;5.20;99102.00;;;;5005347;28;108624;-68
2022/09/29 04:28:10;;;;;;;3.57;2.80;;;5.40;99.90;5.30;99114.00;;;;5003936;28;88619;-68
2022/09/29 04:30:36;;;;;;;9.27;2.37;;;5.30;99.90;5.30;99103.00;;;;5004183;28;104889;-69
2022/09/29 04:33:02;;;;;;;8.53;3.03;;;5.40;99.90;5.30;99102.00;;;;5003788;28;87852;-69
2022/09/29 04:35:28;;;;;;;3.90;2.23;;;5.40;99.90;5.30;99111.00;;;;4998739;28;87487;-68
2022/09/29 04:37:58;;;;;;;3.67;2.40;;;5.90;99.90;5.30;99110.00;;;;5007881;28;88802;-69
2022/09/29 04:40:25;;;;;;;5.93;2.33;;;5.50;99.90;5.30;99108.00;;;;5009003;28;88235;-68
2022/09/29 04:42:50;;;;;;;2.67;2.10;;;5.50;99.90;5.30;99111.00;;;;5007834;28;110178;-69
2022/09/29 04:45:17;;;;;;;2.70;2.37;;;5.50;99.90;5.30;99113.00;;;;5004859;28;109900;-69
2022/09/29 04:47:42;;;;;;;2.87;2.00;;;5.40;99.90;5.30;99121.00;;;;5002561;28;110054;-68
2022/09/29 04:50:08;;;;;;;3.90;2.30;;;5.70;99.90;5.30;99127.00;;;;5000298;28;116738;-68
2022/09/29 04:52:35;;;;;;;4.70;2.50;;;5.40;99.90;5.20;99124.00;;;;5001803;28;87427;-68
2022/09/29 04:55:03;;;;;;;1.80;1.43;;;5.40;99.90;5.20;99129.00;;;;4999145;28;87399;-68
2022/09/29 04:57:28;;;;;;;2.70;2.23;;;5.40;99.90;5.10;99124.00;;;;5008108;28;87467;-68
2022/09/29 04:59:55;;;;;;;6.57;2.67;;;5.30;99.90;5.00;99137.00;;;;5009524;28;117468;-68
2022/09/29 05:02:21;;;;;;;2.70;2.03;;;5.50;99.90;5.00;99119.00;;;;5010515;28;87251;-67
2022/09/29 05:04:47;;;;;;;3.83;1.97;;;5.20;99.90;4.90;99135.00;;;;5007040;28;107602;-68
2022/09/29 05:07:13;;;;;;;5.50;2.60;;;5.10;99.90;4.90;99135.00;;;;5005348;28;87372;-68
2022/09/29 05:09:39;;;;;;;3.13;2.17;;;5.00;99.90;4.80;99132.00;;;;5018607;28;87312;-67
2022/09/29 05:12:05;;;;;;;3.00;2.20;;;5.00;99.90;4.70;99134.00;;;;5006480;28;88777;-68
2022/09/29 05:14:31;;;;;;;2.63;2.13;;;5.50;99.90;4.70;99143.00;;;;5006089;28;105177;-68
2022/09/29 05:16:57;;;;;;;3.43;2.07;;;4.90;99.90;4.70;99132.00;;;;5003881;28;116314;-68
2022/09/29 05:19:23;;;;;;;5.60;2.67;;;4.90;99.90;4.70;99145.00;;;;5010719;28;117385;-67
2022/09/29 05:21:49;;;;;;;3.70;2.40;;;4.90;99.90;4.60;99137.00;;;;5006400;28;109661;-67
2022/09/29 05:24:14;;;;;;;4.30;2.57;;;4.80;99.90;4.60;99137.00;;;;5010322;28;88703;-67
2022/09/29 05:26:40;;;;;;;4.33;2.53;;;4.80;99.90;4.60;99138.00;;;;5002193;28;116697;-67
2022/09/29 05:29:06;;;;;;;4.97;3.17;;;4.90;99.90;4.60;99143.00;;;;5003140;28;88080;-67
2022/09/29 05:31:31;;;;;;;2.77;2.20;;;4.80;99.90;4.60;99134.00;;;;5001317;28;109405;-67
2022/09/29 05:33:57;;;;;;;4.40;2.47;;;4.80;99.90;4.60;99144.00;;;;4991218;28;107860;-67
2022/09/29 05:36:23;;;;;;;3.27;2.43;;;4.70;99.90;4.60;99144.00;;;;5006972;28;88493;-67
2022/09/29 05:38:49;;;;;;;2.67;2.47;;;5.20;99.90;4.60;99149.00;;;;5014170;28;88085;-67
2022/09/29 05:41:21;;;;;;;3.40;2.17;;;4.70;99.90;4.60;99153.00;;;;5010091;28;87678;-66
2022/09/29 05:43:47;;;;;;;2.70;1.87;;;4.70;99.90;4.50;99143.00;;;;5008917;28;87508;-66
2022/09/29 05:46:13;;;;;;;2.97;2.53;;;4.70;99.90;4.50;99147.00;;;;5005095;28;88297;-67
2022/09/29 05:48:39;;;;;;;2.70;1.97;;;4.70;99.90;4.50;99142.00;;;;5000004;28;88557;-67
2022/09/29 05:51:12;;;;;;;3.33;2.43;;;4.70;99.90;4.50;99144.00;;;;5003049;28;109441;-67
2022/09/29 05:53:38;;;;;;;8.50;2.93;;;4.70;99.90;4.50;99137.00;;;;4996963;28;86368;-66
2022/09/29 05:56:10;;;;;;;3.83;2.67;;;4.60;99.90;4.40;99144.00;;;;5000540;28;87708;-67
2022/09/29 05:58:37;;;;;;;3.07;2.77;;;4.60;99.90;4.40;99141.00;;;;5006752;28;88463;-67
2022/09/29 06:01:22;;;;;;;2.60;2.23;;;4.60;99.90;4.40;99144.00;;;;5010725;28;88499;-67
2022/09/29 06:03:50;;;;;;;3.37;2.87;;;4.70;99.90;4.50;99141.00;;;;5008342;28;87400;-67
2022/09/29 06:06:20;;;;;;;3.20;2.77;;;4.60;99.90;4.50;99142.00;;;;5008937;28;88642;-67
2022/09/29 06:08:47;;;;;;;2.13;1.93;;;4.70;99.90;4.70;99145.00;;;;5002565;28;87538;-67
2022/09/29 06:11:17;;;;;;;3.13;2.83;;;4.80;99.90;4.90;99152.00;;;;5009778;28;88125;-67
2022/09/29 06:13:46;;;;;;;2.87;2.60;;;5.00;99.90;5.10;99152.00;;;;5008819;28;88078;-66
2022/09/29 06:16:12;;;;;;;3.97;3.43;;;5.30;99.90;5.30;99154.00;;;;5014577;28;88640;-66
2022/09/29 06:18:39;;;;;;;4.33;2.73;;;5.70;99.90;5.50;99162.00;;;;5009626;28;103521;-66
2022/09/29 06:21:11;;;;;;;3.90;3.33;;;5.60;99.90;5.70;99156.00;;;;5009045;28;109642;-66
2022/09/29 06:23:37;;;;;;;5.67;3.60;;;5.90;99.90;6.00;99165.00;;;;5011851;28;86939;-66
2022/09/29 06:26:08;;;;;;;4.33;3.43;;;6.10;99.90;6.20;99171.00;;;;5007405;28;99767;-66
2022/09/29 06:28:34;;;;;;;4.20;2.73;;;6.30;99.90;6.30;99162.00;;;;5009583;28;88672;-67
2022/09/29 06:31:08;;;;;;;3.97;2.83;;;6.40;99.90;6.40;99164.00;;;;5001620;28;110283;-66
2022/09/29 06:33:35;;;;;;;2.43;2.23;;;7.00;99.90;6.50;99162.00;;;;5010595;28;87311;-67
2022/09/29 06:38:50;;;;;;;3.90;2.93;;;6.80;99.90;6.90;99171.00;;;;5013649;28;87731;-68
2022/09/29 06:41:16;;;;;;;2.73;2.10;;;6.90;99.90;7.10;99171.00;;;;5003159;28;110483;-67
2022/09/29 06:43:42;;;;;;;6.77;2.73;;;7.30;99.90;7.30;99176.00;;;;5005938;28;98912;-67
2022/09/29 06:46:07;;;;;;;3.23;2.57;;;7.70;99.90;7.60;99169.00;;;;5006853;28;117443;-67
2022/09/29 06:48:33;;;;;;;4.33;2.23;;;7.60;99.90;7.90;99181.00;;;;5004107;28;117478;-68
2022/09/29 06:50:59;;;;;;;2.43;1.80;;;7.90;99.90;8.10;99179.00;;;;5004827;28;109593;-68
2022/09/29 06:53:25;;;;;;;2.83;2.20;;;8.10;99.90;8.20;99173.00;;;;5000404;28;87880;-68
2022/09/29 06:55:52;;;;;;;4.87;2.73;;;8.70;99.90;8.40;99177.00;;;;5007967;28;101550;-67
2022/09/29 06:58:18;;;;;;;3.77;2.10;;;8.40;99.90;8.50;99171.00;;;;5007059;28;88282;-68
2022/09/29 07:00:44;;;;;;;3.40;2.40;;;8.50;99.90;8.50;99169.00;;;;5004809;28;87853;-68
2022/09/29 07:03:10;;;;;;;4.27;2.47;;;8.60;99.90;8.70;99167.00;;;;4999878;28;87283;-68
2022/09/29 07:05:36;;;;;;;4.67;2.80;;;8.70;99.90;8.80;99176.00;;;;4997054;28;116974;-68
2022/09/29 07:08:02;;;;;;;3.60;2.37;;;8.90;99.90;9.00;99172.00;;;;5002464;28;116111;-68
2022/09/29 07:10:28;;;;;;;2.77;2.00;;;9.10;99.90;9.30;99177.00;;;;5022581;27;87574;-68
2022/09/29 07:12:54;;;;;;;3.90;2.40;;;9.30;99.90;9.50;99176.00;;;;5010173;28;87713;-67
2022/09/29 07:15:20;;;;;;;3.47;2.03;;;9.40;99.90;9.80;99179.00;;;;5004266;28;94304;-67
2022/09/29 07:17:50;;;;;;;1.93;1.47;;;9.80;99.90;10.20;99178.00;;;;5003240;28;103765;-67
2022/09/29 07:20:15;;;;;;;2.30;1.83;;;10.10;99.90;10.50;99172.00;;;;5007332;28;103509;-67
2022/09/29 07:22:41;;;;;;;2.33;1.93;;;10.40;99.90;10.70;99173.00;;;;5003500;28;108304;-67
2022/09/29 07:25:07;;;;;;;3.13;2.67;;;10.70;99.90;11.00;99185.00;;;;5000868;28;116502;-67
2022/09/29 07:27:34;;;;;;;2.10;1.90;;;11.00;99.90;11.20;99193.00;;;;4998655;28;117663;-66
2022/09/29 07:30:00;;;;;;;4.60;2.47;;;11.20;99.90;11.40;99184.00;;;;5002332;28;87658;-66
2022/09/29 07:32:25;;;;;;;3.23;1.80;;;11.40;99.90;11.70;99191.00;;;;5009056;28;87370;-66
2022/09/29 07:34:51;;;;;;;2.93;2.03;;;11.70;99.90;11.90;99190.00;;;;5010338;28;88139;-66
2022/09/29 07:37:17;;;;;;;2.17;1.83;;;11.90;99.90;12.30;99195.00;;;;5002800;28;117694;-66
2022/09/29 07:39:42;;;;;;;1.87;1.70;;;12.20;99.90;12.50;99197.00;;;;5004156;28;110388;-66
2022/09/29 07:42:08;;;;;;;3.17;2.40;;;12.50;99.90;12.80;99193.00;;;;5002427;28;108571;-66
2022/09/29 07:44:34;;;;;;;4.13;1.60;;;12.80;99.90;13.00;99200.00;;;;5001323;28;88834;-66
2022/09/29 07:46:59;;;;;;;3.13;1.93;;;12.90;99.90;13.20;99186.00;;;;5007226;28;115344;-66
2022/09/29 07:49:25;;;;;;;2.53;1.50;;;13.20;99.90;13.40;99190.00;;;;5002091;28;90498;-66
2022/09/29 07:51:51;;;;;;;3.47;1.60;;;13.40;99.90;13.80;99185.00;;;;4998714;28;108241;-65
2022/09/29 07:54:17;;;;;;;2.67;1.70;;;13.70;99.90;14.10;99194.00;;;;5007871;28;88893;-64
2022/09/29 07:56:42;;;;;;;2.17;1.87;;;14.00;99.90;14.40;99198.00;;;;5007971;28;116617;-63
2022/09/29 07:59:10;;;;;;;1.93;1.70;;;14.30;99.90;14.50;99197.00;;;;5017166;27;109733;-64
2022/09/29 08:01:36;;;;;;;4.37;1.77;;;14.50;99.90;14.60;99202.00;;;;4996530;28;87199;-64
2022/09/29 08:04:01;;;;;;;2.37;1.83;;;14.60;99.90;14.70;99212.00;;;;4996126;28;118380;-64
2022/09/29 08:06:28;;;;;;;3.10;1.90;;;14.70;99.90;14.70;99205.00;;;;5001536;28;118415;-63
2022/09/29 08:08:53;;;;;;;1.47;1.37;;;14.80;99.90;14.90;99211.00;;;;5003761;28;107896;-63
2022/09/29 08:11:20;;;;;;;3.27;2.33;;;14.90;99.90;15.10;99209.00;;;;5005776;28;87481;-63
2022/09/29 08:13:49;;;;;;;4.83;2.33;;;15.10;99.90;15.40;99217.00;;;;5001861;28;91300;-63
2022/09/29 08:16:15;;;;;;;2.33;1.63;;;15.30;99.90;15.60;99220.00;;;;5002101;28;108618;-62
2022/09/29 08:18:41;;;;;;;2.97;1.97;;;15.60;99.90;15.40;99216.00;;;;5004041;28;86915;-63
2022/09/29 08:21:09;;;;;;;2.97;2.30;;;15.50;99.90;15.30;99223.00;;;;5000411;28;87763;-62
2022/09/29 08:23:40;;;;;;;3.13;2.47;;;15.50;99.90;15.20;99217.00;;;;4998363;28;100956;-63
2022/09/29 08:26:16;;;;;;;3.42;2.63;;;15.40;99.90;15.20;99228.00;;;;4999931;28;88359;-62
2022/09/29 08:28:43;;;;;;;3.72;2.28;;;15.30;99.90;15.50;99229.00;;;;5002245;28;89001;-62
2022/09/29 08:31:15;;;;;;;2.65;1.45;;;15.50;99.90;15.80;99237.00;;;;5010625;28;87412;-63
2022/09/29 08:33:41;;;;;;;2.80;1.90;;;15.70;99.90;15.80;99235.00;;;;5009345;28;87533;-62
2022/09/29 08:36:13;;;;;;;2.60;1.67;;;15.80;99.90;16.00;99241.00;;;;5002907;28;115900;-62
2022/09/29 08:38:44;;;;;;;12.98;2.05;;;15.90;99.90;16.30;99241.00;;;;5004264;28;87608;-63
2022/09/29 08:41:28;;;;;;;2.43;2.10;;;16.20;99.90;16.50;99249.00;;;;5006252;28;87321;-62
2022/09/29 08:44:11;;;;;;;2.58;1.48;;;16.50;99.90;16.80;99247.00;;;;5005654;28;87732;-63
2022/09/29 08:46:49;;;;;;;3.65;2.65;;;16.70;99.90;16.90;99251.00;;;;5005587;28;106227;-62
2022/09/29 08:49:27;;;;;;;3.25;2.15;;;16.90;99.10;16.90;99260.00;;;;5000652;28;102980;-62
2022/09/29 08:52:05;;;;;;;2.08;1.88;;;16.90;98.00;17.00;99263.00;;;;5008348;28;87233;-63
2022/09/29 08:54:38;;;;;;;2.22;2.03;;;17.00;96.30;16.80;99260.00;;;;5006787;28;95975;-62
2022/09/29 08:57:05;;;;;;;1.77;1.67;;;16.80;94.60;16.80;99263.00;;;;5029569;27;107403;-62
2022/09/29 08:59:31;;;;;;;2.30;1.77;;;16.80;95.30;16.90;99268.00;;;;5002817;28;87363;-62
2022/09/29 09:02:54;;;;;;;2.00;1.88;;;16.90;95.70;17.20;99270.00;;;;5002862;28;101417;-62
2022/09/29 09:05:57;;;;;;;2.10;1.83;;;17.10;96.00;17.60;99267.00;;;;5003390;28;109983;-62
2022/09/29 09:08:54;;;;;;;2.90;2.13;;;17.50;95.50;17.90;99272.00;;;;5020414;27;87515;-63
2022/09/29 09:11:26;;;;;;;1.75;1.40;;;17.80;94.80;18.30;99265.00;;;;5006148;28;101790;-61
2022/09/29 09:14:44;;;;;;;2.72;2.08;;;18.10;93.90;18.40;99272.00;;;;5007694;28;87349;-63
2022/09/29 09:17:21;;;;;;;2.63;1.88;;;18.40;91.30;18.40;99279.00;;;;5025103;27;88972;-61
2022/09/29 09:20:09;;;;;;;2.85;1.73;;;18.40;90.40;18.50;99279.00;;;;4999587;28;87249;-62
2022/09/29 09:22:56;;;;;;;2.97;2.28;;;18.50;90.30;18.70;99283.00;;;;5015235;27;88768;-61
2022/09/29 09:25:40;;;;;;;2.28;1.10;;;18.70;90.00;19.10;99295.00;;;;5001497;28;87295;-62
2022/09/29 09:28:18;;;;;;;5.45;1.98;;;18.90;89.70;19.30;99287.00;;;;5006267;28;88831;-62
2022/09/29 09:30:56;;;;;;;2.45;1.90;;;19.20;83.50;19.10;99280.00;;;;5006216;28;88447;-61
2022/09/29 09:33:36;;;;;;;2.40;1.58;;;19.10;78.20;19.10;99289.00;;;;5002017;28;87012;-62
2022/09/29 09:36:13;;;;;;;2.75;1.80;;;19.10;76.50;19.20;99286.00;;;;5006359;28;98288;-61
2022/09/29 09:39:00;;;;;;;2.50;1.45;;;19.10;77.30;19.50;99291.00;;;;5006395;28;91926;-62
2022/09/29 09:41:27;;;;;;;2.30;1.88;;;19.20;78.10;19.70;99288.00;;;;5001253;28;108781;-62
2022/09/29 09:44:18;;;;;;;3.33;2.22;;;19.50;76.20;19.70;99291.00;;;;5018421;27;87489;-62
2022/09/29 09:46:53;;;;;;;2.50;1.80;;;19.50;72.30;19.80;99287.00;;;;5001325;28;87340;-62
2022/09/29 09:49:38;;;;;;;2.08;1.88;;;19.50;74.20;20.10;99288.00;;;;5004023;28;88994;-61
2022/09/29 09:52:19;;;;;;;5.97;2.05;;;19.80;74.60;20.40;99286.00;;;;5007895;28;89520;-62
2022/09/29 09:54:46;;;;;;;2.13;1.38;;;20.10;70.70;20.40;99290.00;;;;4996502;28;105218;-61
2022/09/29 09:57:33;;;;;;;3.00;1.83;;;20.20;70.30;20.50;99286.00;;;;5000145;28;100533;-61
2022/09/29 10:00:11;;;;;;;1.33;0.93;;;20.20;69.40;20.50;99289.00;;;;5007063;28;88856;-62
2022/09/29 10:02:47;;;;;;;4.55;1.77;;;20.30;70.50;20.50;99291.00;;;;5002879;28;87580;-62
2022/09/29 10:05:17;;;;;;;1.67;1.27;;;20.30;69.00;20.30;99289.00;;;;5004418;28;87006;-62
2022/09/29 10:07:44;;;;;;;2.35;1.85;;;20.20;69.40;20.20;99286.00;;;;5007142;28;86601;-62
2022/09/29 10:10:25;;;;;;;2.35;1.42;;;20.10;65.20;19.80;99285.00;;;;5001354;28;114561;-61
2022/09/29 10:13:07;;;;;;;2.00;1.48;;;19.80;66.00;19.70;99283.00;;;;5009093;28;87630;-61
2022/09/29 10:15:42;;;;;;;1.48;1.25;;;19.50;68.20;19.90;99283.00;;;;5003856;28;89002;-61
2022/09/29 10:18:18;;;;;;;1.52;1.42;;;19.60;69.30;20.10;99292.00;;;;5000741;28;87727;-62
2022/09/29 10:20:44;;;;;;;2.17;1.42;;;19.80;67.80;20.30;99290.00;;;;4999482;28;109931;-61
2022/09/29 10:23:28;;;;;;;1.73;1.48;;;20.00;68.00;20.40;99293.00;;;;5015442;27;87504;-61
2022/09/29 10:26:16;;;;;;;2.20;1.63;;;20.10;66.00;20.60;99289.00;;;;5002968;28;87555;-62
2022/09/29 10:28:51;;;;;;;1.50;1.35;;;20.30;67.10;20.60;99298.00;;;;5000959;28;87381;-62
2022/09/29 10:31:21;;;;;;;3.10;1.60;;;20.30;67.20;20.80;99305.00;;;;5002213;28;109551;-61
2022/09/29 10:34:09;;;;;;;3.70;1.58;;;20.40;67.60;21.20;99309.00;;;;5005550;28;87068;-62
2022/09/29 10:36:57;;;;;;;3.72;1.20;;;20.70;67.50;21.60;99308.00;;;;4996311;28;92729;-61
2022/09/29 10:39:42;;;;;;;2.53;1.35;;;21.10;66.00;21.80;99317.00;;;;4998343;28;87184;-61
2022/09/29 10:42:32;;;;;;;2.45;1.50;;;21.40;64.30;21.70;99312.00;;;;5004224;28;89285;-61
2022/09/29 10:45:12;;;;;;;1.05;0.88;;;21.40;61.80;21.80;99320.00;;;;5000993;28;88176;-61
2022/09/29 10:47:39;;;;;;;1.38;1.20;;;21.40;63.50;22.10;99315.00;;;;5004168;28;87164;-62
2022/09/29 10:50:19;;;;;;;1.58;1.48;;;21.70;63.20;22.20;99323.00;;;;5003149;28;96526;-61
2022/09/29 10:53:00;;;;;;;2.40;1.48;;;21.80;60.20;21.70;99322.00;;;;4996551;28;88338;-61
2022/09/29 10:55:34;;;;;;;3.67;1.33;;;21.60;56.10;21.00;99322.00;;;;5004697;28;97002;-61
2022/09/29 10:58:27;;;;;;;2.53;1.50;;;21.00;57.50;20.20;99324.00;;;;5003656;28;87370;-61
2022/09/29 11:01:10;;;;;;;3.38;0.95;;;20.30;58.20;19.70;99320.00;;;;4991273;28;87273;-61
2022/09/29 11:03:48;;;;;;;0.90;0.65;;;19.70;60.40;19.50;99327.00;;;;5003261;28;88318;-61
2022/09/29 11:06:14;;;;;;;0.68;0.68;;;19.40;61.90;19.30;99332.00;;;;5005731;28;87536;-61
2022/09/29 11:09:03;;;;;;;0.82;0.82;;;19.20;62.40;19.10;99332.00;;;;5022155;27;91314;-61
2022/09/29 11:11:35;;;;;;;1.20;0.73;;;19.00;62.50;18.90;99331.00;;;;5021579;27;87572;-61
2022/09/29 11:14:01;;;;;;;0.52;0.50;;;18.80;62.80;18.90;99335.00;;;;5000092;28;110043;-61
2022/09/29 11:16:34;;;;;;;0.63;0.63;;;18.70;63.30;19.20;99331.00;;;;5017841;27;88563;-61
2022/09/29 11:19:11;;;;;;;2.83;0.80;;;18.90;63.70;19.60;99332.00;;;;5002059;28;87311;-62
2022/09/29 11:22:18;;;;;;;1.55;1.45;;;19.20;62.60;20.10;99338.00;;;;5004865;28;87511;-62
2022/09/29 11:25:10;;;;;;;2.55;1.45;;;19.60;62.60;20.40;99335.00;;;;5005757;28;88916;-61
2022/09/29 11:28:06;;;;;;;0.82;0.63;;;20.00;61.80;20.40;99342.00;;;;5003651;28;87244;-61